Time;durP1;ratioP1;P1;durP2;ratioP2;P2;SDS_P1;SDS_P2;PMS_P1;PMS_P2;Temp;Humidity;BMP_temperature;BMP_pressure;BME280_temperature;BME280_humidity;BME280_pressure;Samples;Min_cycle;Max_cycle;Signal;HPM_P1;HPM_P2
2022/10/08 00:00:06;;;;;;;4.25;1.20;;;;;;;11.63;95.04;101392.88;1036271;28;20636;-89
2022/10/08 00:00:46;;;;;;;6.82;2.33;;;;;;;11.64;94.93;101390.00;1030444;28;20306;-89
2022/10/08 00:01:19;;;;;;;5.07;2.47;;;;;;;11.58;95.13;101392.69;1041791;28;20300;-90
2022/10/08 00:01:50;;;;;;;12.45;1.95;;;;;;;11.59;95.40;101391.66;1035450;28;20385;-90
2022/10/08 00:02:22;;;;;;;10.02;2.20;;;;;;;11.58;95.67;101392.69;1036052;28;20306;-89
2022/10/08 00:02:53;;;;;;;11.98;2.90;;;;;;;11.57;95.58;101391.88;1039824;28;20292;-87
2022/10/08 00:03:27;;;;;;;6.97;1.98;;;;;;;11.56;95.71;101386.75;1035457;28;20301;-89
2022/10/08 00:03:59;;;;;;;7.28;2.17;;;;;;;11.57;95.75;101388.38;1039268;28;20303;-89
2022/10/08 00:04:31;;;;;;;7.25;1.80;;;;;;;11.56;96.16;101392.09;1039508;28;20300;-90
2022/10/08 00:05:03;;;;;;;7.85;2.38;;;;;;;11.58;95.95;101398.03;1035646;28;20356;-88
2022/10/08 00:05:35;;;;;;;4.55;1.95;;;;;;;11.59;95.79;101392.47;1038644;28;20303;-90
2022/10/08 00:06:11;;;;;;;6.25;2.70;;;;;;;11.57;95.97;101396.38;1035408;28;20386;-90
2022/10/08 00:06:43;;;;;;;8.35;1.98;;;;;;;11.62;96.05;101396.56;1031302;28;20298;-90
2022/10/08 00:07:15;;;;;;;11.38;4.15;;;;;;;11.59;96.40;101391.66;1027123;28;20343;-90
2022/10/08 00:07:47;;;;;;;7.32;2.38;;;;;;;11.53;96.74;101397.84;1036527;28;20660;-89
2022/10/08 00:08:18;;;;;;;6.40;2.08;;;;;;;11.60;96.64;101387.97;1032854;28;20332;-90
2022/10/08 00:08:53;;;;;;;8.40;2.20;;;;;;;11.61;96.70;101394.94;1034974;28;20297;-90
2022/10/08 00:09:24;;;;;;;5.65;1.70;;;;;;;11.58;96.35;101388.16;1035352;28;20343;-90
2022/10/08 00:09:56;;;;;;;7.90;2.40;;;;;;;11.58;96.46;101393.50;1032487;28;20312;-88
2022/10/08 00:10:27;;;;;;;10.80;2.03;;;;;;;11.52;97.33;101396.19;1034495;28;20301;-91
2022/10/08 00:11:02;;;;;;;5.15;2.08;;;;;;;11.53;97.38;101393.31;1034771;28;20308;-90
2022/10/08 00:11:37;;;;;;;6.70;1.98;;;;;;;11.59;97.54;101399.66;1036355;28;20304;-90
2022/10/08 00:12:08;;;;;;;7.45;1.88;;;;;;;11.61;97.67;101395.75;1036822;28;20806;-91
2022/10/08 00:12:40;;;;;;;6.78;1.85;;;;;;;11.64;96.71;101399.84;1028715;28;20808;-89
2022/10/08 00:13:12;;;;;;;8.27;2.40;;;;;;;11.73;96.76;101401.25;1027312;28;20310;-90
2022/10/08 00:13:46;;;;;;;8.88;2.60;;;;;;;11.72;97.15;101397.75;1028021;28;20349;-91
2022/10/08 00:14:18;;;;;;;5.30;1.70;;;;;;;11.73;96.87;101393.25;1031183;28;20298;-90
2022/10/08 00:14:50;;;;;;;8.18;3.45;;;;;;;11.76;96.49;101395.50;1040465;28;20300;-91
2022/10/08 00:15:21;;;;;;;8.20;2.38;;;;;;;11.74;96.27;101394.88;1042460;28;20741;-87
2022/10/08 00:15:53;;;;;;;4.93;2.67;;;;;;;11.73;96.46;101395.91;1038446;28;20304;-89
2022/10/08 00:16:28;;;;;;;7.65;2.30;;;;;;;11.74;96.42;101392.22;1037236;28;20288;-90
2022/10/08 00:17:00;;;;;;;8.43;2.10;;;;;;;11.78;95.99;101396.16;1039284;28;20320;-89
2022/10/08 00:17:32;;;;;;;7.32;1.65;;;;;;;11.82;96.42;101393.88;1035678;28;20312;-90
2022/10/08 00:18:03;;;;;;;8.85;2.17;;;;;;;11.80;96.56;101396.78;1036266;28;20301;-90
2022/10/08 00:18:35;;;;;;;8.13;1.85;;;;;;;11.79;96.26;101397.81;1036201;28;20300;-89
2022/10/08 00:19:10;;;;;;;6.72;1.95;;;;;;;11.87;96.14;101405.56;1039662;28;20303;-89
2022/10/08 00:19:41;;;;;;;9.60;2.30;;;;;;;11.80;96.15;101404.78;1043556;28;20303;-90
2022/10/08 00:20:13;;;;;;;20.40;2.03;;;;;;;11.82;96.54;101402.72;1040716;28;20358;-90
2022/10/08 00:20:46;;;;;;;8.25;2.00;;;;;;;11.80;96.85;101404.78;1044794;28;20306;-90
2022/10/08 00:21:35;;;;;;;8.98;2.13;;;;;;;11.82;96.54;101402.72;1040981;28;20482;-88
2022/10/08 00:22:06;;;;;;;5.13;1.63;;;;;;;11.82;96.61;101397.38;1042040;28;20307;-88
2022/10/08 00:22:38;;;;;;;10.65;3.80;;;;;;;11.85;96.67;101404.97;1039317;28;20350;-87
2022/10/08 00:23:10;;;;;;;5.90;1.90;;;;;;;11.84;97.00;101403.31;1045321;28;20306;-90
2022/10/08 00:23:43;;;;;;;6.68;3.15;;;;;;;11.90;96.37;101413.16;1035520;28;20742;-90
2022/10/08 00:24:16;;;;;;;10.43;2.72;;;;;;;11.91;96.56;101411.31;1034921;28;20895;-89
2022/10/08 00:24:48;;;;;;;7.00;2.08;;;;;;;11.97;96.77;101411.28;1033178;28;20293;-91
2022/10/08 00:25:20;;;;;;;6.40;1.77;;;;;;;11.95;97.08;101416.00;1032551;28;20304;-91
2022/10/08 00:25:51;;;;;;;5.10;2.00;;;;;;;12.00;96.94;101413.50;1029299;28;20657;-88
2022/10/08 00:26:26;;;;;;;9.43;1.88;;;;;;;11.99;96.41;101413.72;1033574;28;20307;-89
2022/10/08 00:26:59;;;;;;;7.85;2.50;;;;;;;12.00;96.92;101416.19;1030494;28;20813;-90
2022/10/08 00:27:32;;;;;;;5.38;1.67;;;;;;;12.01;97.52;101417.00;1028220;28;20312;-91
2022/10/08 00:28:04;;;;;;;7.03;2.05;;;;;;;11.98;97.04;101407.56;1026961;28;20305;-89
2022/10/08 00:28:37;;;;;;;6.28;2.10;;;;;;;12.05;97.80;101415.53;1027894;28;20309;-90
2022/10/08 00:29:11;;;;;;;12.05;2.65;;;;;;;12.03;97.17;101410.41;1033705;28;20950;-90
2022/10/08 00:29:44;;;;;;;5.25;1.58;;;;;;;12.05;97.18;101416.41;1038821;28;20295;-91
2022/10/08 00:30:15;;;;;;;3.53;2.30;;;;;;;12.05;96.80;101408.38;1036203;28;20328;-91
2022/10/08 00:30:47;;;;;;;7.60;2.10;;;;;;;12.05;96.75;101411.06;1037822;28;20339;-89
2022/10/08 00:31:24;;;;;;;3.17;1.30;;;;;;;12.10;96.98;101412.25;1030265;28;20804;-88
2022/10/08 00:31:57;;;;;;;6.70;2.05;;;;;;;12.12;97.45;101420.88;1039377;28;20465;-90
2022/10/08 00:32:29;;;;;;;12.57;3.10;;;;;;;12.14;97.07;101410.81;1032833;28;20297;-90
2022/10/08 00:33:01;;;;;;;15.35;2.92;;;;;;;12.14;96.95;101416.16;1035431;28;20300;-90
2022/10/08 00:33:35;;;;;;;7.03;1.95;;;;;;;12.13;96.48;101418.00;1039617;28;20296;-90
2022/10/08 00:34:09;;;;;;;7.32;2.63;;;;;;;12.12;96.17;101410.19;1043064;28;20864;-90
2022/10/08 00:34:42;;;;;;;9.35;2.30;;;;;;;12.15;96.51;101413.25;1043678;28;20302;-85
2022/10/08 00:35:13;;;;;;;9.10;2.95;;;;;;;12.23;96.39;101417.53;1041162;28;20296;-89
2022/10/08 00:35:45;;;;;;;14.25;2.85;;;;;;;12.23;95.80;101410.34;1039372;28;20813;-89
2022/10/08 00:36:16;;;;;;;10.27;2.72;;;;;;;12.25;96.20;101418.13;1033380;28;20643;-90
2022/10/08 00:36:52;;;;;;;4.88;1.75;;;;;;;12.23;95.77;101412.19;1033243;28;20313;-89
2022/10/08 00:37:25;;;;;;;11.27;2.42;;;;;;;12.29;96.02;101406.00;1037194;28;20324;-89
2022/10/08 00:37:57;;;;;;;8.82;2.60;;;;;;;12.25;96.43;101416.28;1037912;28;20356;-90
2022/10/08 00:38:29;;;;;;;7.70;1.75;;;;;;;12.20;96.84;101420.63;1033689;28;20866;-89
2022/10/08 00:39:04;;;;;;;5.90;2.15;;;;;;;12.21;96.40;101411.59;1041789;28;20295;-89
2022/10/08 00:39:35;;;;;;;4.28;1.88;;;;;;;12.27;96.75;101408.88;1041601;28;20300;-89
2022/10/08 00:40:07;;;;;;;8.60;2.47;;;;;;;12.27;96.42;101413.41;1044220;28;20306;-90
2022/10/08 00:40:43;;;;;;;8.05;1.92;;;;;;;12.31;96.49;101411.94;1045539;28;20310;-90
2022/10/08 00:41:22;;;;;;;6.13;1.90;;;;;;;12.26;96.17;101417.09;1044180;28;20295;-89
2022/10/08 00:41:54;;;;;;;8.43;2.22;;;;;;;12.25;96.36;101416.28;1046772;28;20309;-88
2022/10/08 00:42:26;;;;;;;8.13;2.20;;;;;;;12.23;96.66;101420.19;1043345;28;20358;-90
2022/10/08 00:43:00;;;;;;;12.25;2.75;;;;;;;12.22;96.98;101413.22;1041230;28;20323;-90
2022/10/08 00:43:38;;;;;;;10.07;2.17;;;;;;;12.31;97.17;101422.63;1043045;28;20307;-90
2022/10/08 00:45:00;;;;;;;15.00;2.95;;;;;;;12.31;96.11;101422.63;1044833;28;20299;-86
2022/10/08 00:45:32;;;;;;;13.93;1.85;;;;;;;12.26;96.89;101419.78;1043020;28;20303;-89
2022/10/08 00:46:04;;;;;;;10.00;2.67;;;;;;;12.26;97.10;101414.44;1038711;28;20046;-87
2022/10/08 00:46:40;;;;;;;3.70;1.63;;;;;;;12.29;97.80;101412.16;1032076;28;20883;-90
2022/10/08 00:47:18;;;;;;;6.28;2.33;;;;;;;12.20;97.81;101418.78;1030866;28;20309;-90
2022/10/08 00:47:52;;;;;;;12.02;2.65;;;;;;;12.17;98.44;101416.53;1030789;28;20308;-88
2022/10/08 00:48:25;;;;;;;6.63;1.95;;;;;;;12.21;97.92;101414.25;1033873;28;20297;-90
2022/10/08 00:49:12;;;;;;;7.40;2.85;;;;;;;12.21;97.77;101420.41;1041293;28;20304;-89
2022/10/08 00:49:48;;;;;;;6.25;2.83;;;;;;;12.22;98.05;101413.22;1042525;28;20319;-88
2022/10/08 00:50:24;;;;;;;7.30;2.10;;;;;;;12.22;98.02;101418.56;1039560;28;20298;-88
2022/10/08 00:50:55;;;;;;;5.55;2.33;;;;;;;12.25;97.72;101418.94;1035390;28;20297;-89
2022/10/08 00:51:28;;;;;;;5.75;2.45;;;;;;;12.28;97.35;101412.38;1032742;28;20332;-90
2022/10/08 00:52:00;;;;;;;9.05;2.42;;;;;;;12.29;97.51;101424.69;1036550;28;20672;-87
2022/10/08 00:52:33;;;;;;;10.05;2.88;;;;;;;12.24;97.41;101421.84;1039218;28;20284;-88
2022/10/08 00:53:08;;;;;;;12.38;4.40;;;;;;;12.19;97.72;101424.34;1036393;28;20343;-90
2022/10/08 00:53:41;;;;;;;9.60;3.15;;;;;;;12.22;98.02;101423.91;1038259;28;20799;-89
2022/10/08 00:54:12;;;;;;;11.23;2.17;;;;;;;12.14;98.61;101421.47;1036662;28;20379;-89
2022/10/08 00:54:45;;;;;;;6.22;2.45;;;;;;;12.16;98.92;101408.75;1036717;28;20317;-90
2022/10/08 00:55:19;;;;;;;9.57;2.45;;;;;;;12.18;98.84;101414.69;1032909;28;20309;-90
2022/10/08 00:55:51;;;;;;;9.82;3.80;;;;;;;12.16;98.69;101420.25;1035812;28;20300;-89
2022/10/08 00:56:23;;;;;;;8.98;2.83;;;;;;;12.20;98.42;101426.78;1033791;28;20364;-90
2022/10/08 00:56:55;;;;;;;10.73;3.00;;;;;;;12.19;98.57;101417.13;1037348;28;20308;-88
2022/10/08 00:57:27;;;;;;;8.95;2.58;;;;;;;12.13;99.17;101420.66;1036596;28;20320;-88
2022/10/08 00:58:06;;;;;;;3.22;1.65;;;;;;;12.12;99.72;101418.22;1029132;28;20310;-89
2022/10/08 00:58:38;;;;;;;7.57;2.45;;;;;;;12.17;99.79;101410.38;1033419;28;20301;-90
2022/10/08 00:59:11;;;;;;;9.88;2.45;;;;;;;12.16;100.00;101419.41;1028594;28;20316;-89
2022/10/08 00:59:43;;;;;;;6.53;2.72;;;;;;;12.14;99.91;101419.63;1031491;28;20314;-88
2022/10/08 01:00:18;;;;;;;11.00;2.40;;;;;;;12.20;99.39;101417.97;1034373;28;20312;-89
2022/10/08 01:00:50;;;;;;;16.02;3.05;;;;;;;12.18;99.34;101417.34;1037700;28;20312;-89
2022/10/08 01:01:21;;;;;;;5.63;2.33;;;;;;;12.25;99.85;101420.81;1035437;28;20304;-90
2022/10/08 01:01:53;;;;;;;7.50;2.30;;;;;;;12.27;99.37;101416.88;1030797;28;20360;-88
2022/10/08 01:02:25;;;;;;;9.50;2.63;;;;;;;12.28;100.00;101412.38;1032452;28;20316;-89
2022/10/08 01:02:56;;;;;;;8.90;3.13;;;;;;;12.23;99.80;101414.84;1037216;28;20332;-89
2022/10/08 01:03:28;;;;;;;6.30;2.17;;;;;;;12.23;99.90;101415.69;1044020;28;20353;-90
2022/10/08 01:04:06;;;;;;;6.72;2.30;;;;;;;12.23;100.00;101421.03;1038319;28;20363;-88
2022/10/08 01:04:39;;;;;;;10.52;3.65;;;;;;;12.20;100.00;101413.44;1035633;28;20297;-88
2022/10/08 01:05:12;;;;;;;10.50;2.97;;;;;;;12.22;100.00;101408.69;1033699;28;20663;-88
2022/10/08 01:06:00;;;;;;;9.48;2.80;;;;;;;12.15;100.00;101417.78;1030392;28;20309;-89
2022/10/08 01:06:51;;;;;;;7.25;2.45;;;;;;;12.13;100.00;101414.50;1034794;28;20307;-89
2022/10/08 01:07:46;;;;;;;21.77;3.00;;;;;;;12.18;100.00;101412.00;1041966;28;20362;-89
2022/10/08 01:08:50;;;;;;;13.38;5.85;;;;;;;12.24;100.00;101411.16;1042562;28;20041;-89
2022/10/08 01:09:31;;;;;;;9.32;2.97;;;;;;;12.24;100.00;101411.16;1044936;28;20295;-90
2022/10/08 01:10:10;;;;;;;6.50;2.00;;;;;;;12.31;100.00;101414.59;1035952;28;20415;-90
2022/10/08 01:10:47;;;;;;;7.97;2.92;;;;;;;12.31;100.00;101409.25;1034289;28;20788;-89
2022/10/08 01:11:34;;;;;;;11.38;2.72;;;;;;;12.28;100.00;101409.69;1039126;28;20288;-90
2022/10/08 01:12:24;;;;;;;8.10;2.65;;;;;;;12.30;100.00;101411.13;1047967;28;20303;-89
2022/10/08 01:13:18;;;;;;;6.97;2.80;;;;;;;12.33;100.00;101409.91;1047862;28;20350;-87
2022/10/08 01:14:02;;;;;;;11.52;2.25;;;;;;;12.32;100.00;101406.38;1043763;28;20295;-89
2022/10/08 01:14:40;;;;;;;12.25;2.97;;;;;;;12.32;100.00;101413.56;1040242;28;20781;-88
2022/10/08 01:15:33;;;;;;;6.25;2.58;;;;;;;12.40;100.00;101415.19;1040371;28;20718;-89
2022/10/08 01:16:07;;;;;;;4.63;2.45;;;;;;;12.35;100.00;101418.50;1037901;28;20500;-90
2022/10/08 01:16:59;;;;;;;9.27;2.58;;;;;;;12.33;100.00;101407.22;1046675;28;20388;-91
2022/10/08 01:17:36;;;;;;;7.30;2.67;;;;;;;12.33;100.00;101415.25;1039063;28;20369;-88
2022/10/08 01:18:33;;;;;;;8.55;3.13;;;;;;;12.31;100.00;101411.94;1042023;28;20836;-89
2022/10/08 01:19:10;;;;;;;11.90;2.67;;;;;;;12.36;100.00;101409.47;1033534;28;20645;-88
2022/10/08 01:19:54;;;;;;;5.80;2.63;;;;;;;12.30;100.00;101412.97;1038214;28;20315;-89
2022/10/08 01:20:44;;;;;;;6.47;2.90;;;;;;;12.34;100.00;101416.88;1038300;28;20347;-89
2022/10/08 01:21:30;;;;;;;7.47;2.28;;;;;;;12.38;100.00;101412.75;1037860;28;20391;-92
2022/10/08 01:22:18;;;;;;;8.00;2.47;;;;;;;12.40;100.00;101416.00;1039921;28;20312;-88
2022/10/08 01:22:58;;;;;;;8.35;2.63;;;;;;;12.34;100.00;101411.53;1042608;28;20761;-92
2022/10/08 01:23:57;;;;;;;8.77;2.22;;;;;;;12.30;100.00;101411.13;1042138;28;20292;-88
2022/10/08 01:26:16;;;;;;;8.43;2.38;;;;;;;12.37;100.00;101411.91;1041516;28;20307;-89
2022/10/08 01:27:00;;;;;;;8.80;2.42;;;;;;;12.31;100.00;101410.06;1038000;28;20432;-87
2022/10/08 01:27:40;;;;;;;7.72;2.30;;;;;;;12.28;100.00;101413.19;1033398;28;20050;-89
2022/10/08 01:28:11;;;;;;;10.30;2.60;;;;;;;12.29;100.00;101414.00;1040194;28;20326;-88
2022/10/08 01:28:56;;;;;;;9.23;2.40;;;;;;;12.29;100.00;101419.34;1039872;28;20099;-90
2022/10/08 01:29:37;;;;;;;8.82;2.33;;;;;;;12.27;100.00;101410.72;1041515;28;20295;-89
2022/10/08 01:30:13;;;;;;;9.05;2.05;;;;;;;12.22;100.00;101414.03;1045183;28;20356;-88
2022/10/08 01:30:53;;;;;;;13.48;3.40;;;;;;;12.22;100.00;101413.22;1040872;28;20295;-91
2022/10/08 01:31:43;;;;;;;15.95;3.20;;;;;;;12.28;100.00;101423.03;1036250;28;20687;-89
2022/10/08 01:32:25;;;;;;;12.18;3.20;;;;;;;12.28;100.00;101418.53;1035114;28;20364;-89
2022/10/08 01:33:12;;;;;;;8.57;2.63;;;;;;;12.27;100.00;101424.91;1037801;28;20315;-90
2022/10/08 01:34:12;;;;;;;5.88;2.20;;;;;;;12.29;100.00;101420.16;1045768;28;20374;-91
2022/10/08 01:34:46;;;;;;;8.15;2.63;;;;;;;12.23;100.00;101414.84;1041240;28;20311;-90
2022/10/08 01:35:27;;;;;;;8.05;2.72;;;;;;;12.20;100.00;101433.97;1044838;28;20299;-89
2022/10/08 01:36:00;;;;;;;14.20;2.47;;;;;;;12.22;100.00;101429.25;1041977;28;20338;-87
2022/10/08 01:36:40;;;;;;;8.38;2.28;;;;;;;12.22;100.00;101418.56;1038182;28;20041;-89
2022/10/08 01:37:16;;;;;;;7.70;2.38;;;;;;;12.28;100.00;101421.19;1041067;28;20676;-89
2022/10/08 01:37:48;;;;;;;8.40;3.15;;;;;;;12.16;100.00;101424.75;1042165;28;20726;-89
2022/10/08 01:38:21;;;;;;;6.43;2.33;;;;;;;12.22;100.00;101423.91;1042607;28;20304;-89
2022/10/08 01:38:56;;;;;;;13.40;2.78;;;;;;;12.22;100.00;101423.91;1037592;28;20440;-90
2022/10/08 01:39:30;;;;;;;4.07;2.60;;;;;;;12.24;100.00;101428.00;1037424;28;20372;-89
2022/10/08 01:40:07;;;;;;;9.85;2.83;;;;;;;12.29;100.00;101424.69;1036322;28;20311;-89
2022/10/08 01:40:40;;;;;;;7.10;2.55;;;;;;;12.21;100.00;101422.25;1030222;28;20317;-89
2022/10/08 01:41:14;;;;;;;5.60;2.15;;;;;;;12.17;100.00;101421.88;1029192;28;20301;-87
2022/10/08 01:41:49;;;;;;;7.55;2.92;;;;;;;12.16;100.00;101419.41;1030661;28;20372;-89
2022/10/08 01:42:22;;;;;;;12.40;2.30;;;;;;;12.26;100.00;101422.44;1033343;28;20298;-91
2022/10/08 01:42:55;;;;;;;9.77;2.67;;;;;;;12.26;100.00;101425.13;1030868;28;20305;-89
2022/10/08 01:43:30;;;;;;;4.95;3.25;;;;;;;12.23;100.00;101423.69;1032506;28;20664;-89
2022/10/08 01:44:10;;;;;;;10.40;2.38;;;;;;;12.21;100.00;101419.59;1031377;28;20669;-90
2022/10/08 01:44:47;;;;;;;7.75;2.50;;;;;;;12.20;100.00;101426.78;1030694;28;20735;-90
2022/10/08 01:45:25;;;;;;;6.75;2.70;;;;;;;12.16;100.00;101422.91;1035277;28;20046;-89
2022/10/08 01:46:01;;;;;;;8.30;2.72;;;;;;;12.20;100.00;101429.47;1039347;28;20848;-89
2022/10/08 01:46:36;;;;;;;8.77;3.15;;;;;;;12.16;100.00;101424.75;1045949;28;20299;-89
2022/10/08 01:47:10;;;;;;;7.55;2.53;;;;;;;12.15;100.00;101428.47;1040409;28;20303;-90
2022/10/08 01:47:43;;;;;;;9.05;3.38;;;;;;;12.14;100.00;101427.66;1035382;28;20304;-89
2022/10/08 01:48:20;;;;;;;8.32;2.80;;;;;;;12.15;100.00;101433.81;1035401;28;20326;-89
2022/10/08 01:48:56;;;;;;;6.43;1.98;;;;;;;12.15;100.00;101439.16;1034680;28;20853;-90
2022/10/08 01:49:31;;;;;;;12.38;2.53;;;;;;;12.20;100.00;101425.97;1034726;28;20309;-90
2022/10/08 01:50:11;;;;;;;10.05;2.80;;;;;;;12.13;100.00;101425.19;1034792;28;20297;-90
2022/10/08 01:51:02;;;;;;;6.22;2.20;;;;;;;12.12;100.00;101429.72;1034443;28;20396;-90
2022/10/08 01:51:39;;;;;;;6.90;2.50;;;;;;;12.08;100.00;101428.50;1040000;28;20337;-90
2022/10/08 01:52:19;;;;;;;11.68;3.13;;;;;;;12.11;100.00;101430.75;1047554;28;20033;-88
2022/10/08 01:52:54;;;;;;;9.90;2.70;;;;;;;12.12;100.00;101428.88;1040718;28;20389;-90
2022/10/08 01:53:27;;;;;;;10.88;2.80;;;;;;;12.12;100.00;101428.88;1038007;28;20085;-87
2022/10/08 01:54:02;;;;;;;9.70;2.85;;;;;;;12.10;100.00;101418.41;1035685;28;20292;-88
2022/10/08 01:54:34;;;;;;;4.82;1.95;;;;;;;12.12;100.00;101429.72;1030871;28;20286;-90
2022/10/08 01:55:12;;;;;;;6.03;2.13;;;;;;;12.11;100.00;101435.25;1032464;28;20388;-90
2022/10/08 01:55:49;;;;;;;8.70;2.55;;;;;;;11.99;100.00;101425.22;1036349;28;20671;-90
2022/10/08 01:56:24;;;;;;;6.75;2.25;;;;;;;12.04;100.00;101427.25;1036482;28;20305;-89
2022/10/08 01:56:57;;;;;;;8.40;2.33;;;;;;;12.05;100.00;101435.09;1030379;28;20684;-89
2022/10/08 01:57:30;;;;;;;6.22;2.92;;;;;;;12.06;100.00;101428.72;1031555;28;20702;-89
2022/10/08 01:58:06;;;;;;;5.78;2.75;;;;;;;12.05;100.00;101424.41;1033058;28;20641;-90
2022/10/08 01:59:01;;;;;;;10.55;3.25;;;;;;;12.09;100.00;101432.00;1035657;28;20297;-92
2022/10/08 01:59:37;;;;;;;8.10;1.58;;;;;;;12.05;100.00;101429.75;1033729;28;20312;-92
2022/10/08 02:00:11;;;;;;;9.50;2.60;;;;;;;12.01;100.00;101428.50;1039520;28;20295;-90
2022/10/08 02:00:44;;;;;;;10.90;3.38;;;;;;;12.00;100.00;101426.88;1040242;28;20299;-90
2022/10/08 02:01:38;;;;;;;7.47;2.65;;;;;;;11.98;100.00;101426.25;1040142;28;20295;-92
2022/10/08 02:02:17;;;;;;;8.60;3.03;;;;;;;12.07;100.00;101430.34;1032057;28;20303;-92
2022/10/08 02:02:48;;;;;;;7.53;1.70;;;;;;;12.03;100.00;101430.97;1036279;28;20300;-91
2022/10/08 02:03:20;;;;;;;7.32;1.70;;;;;;;11.98;100.00;101431.59;1038394;28;20307;-92
2022/10/08 02:04:42;;;;;;;13.50;2.90;;;;;;;12.02;100.00;101430.13;1034978;28;20308;-93
2022/10/08 02:05:13;;;;;;;4.32;2.00;;;;;;;11.89;100.00;101434.72;1032239;28;20089;-92
2022/10/08 02:05:50;;;;;;;9.57;1.95;;;;;;;11.93;100.00;101427.91;1036751;28;20303;-92
2022/10/08 02:06:23;;;;;;;5.70;2.10;;;;;;;11.90;100.00;101425.69;1033861;28;20300;-92
2022/10/08 02:06:56;;;;;;;9.02;2.55;;;;;;;11.92;100.00;101434.28;1035284;28;20810;-92
2022/10/08 02:07:31;;;;;;;5.18;1.77;;;;;;;11.92;100.00;101432.44;1039442;28;20630;-90
2022/10/08 02:08:03;;;;;;;11.43;4.15;;;;;;;11.95;100.00;101432.03;1034864;28;20302;-92
2022/10/08 02:08:35;;;;;;;4.70;1.80;;;;;;;11.94;100.00;101434.91;1038464;28;20293;-91
2022/10/08 02:09:06;;;;;;;10.45;3.08;;;;;;;11.95;100.00;101432.03;1039623;28;20291;-90
2022/10/08 02:09:43;;;;;;;5.10;2.35;;;;;;;11.87;100.00;101442.94;1034503;28;20632;-92
2022/10/08 02:10:21;;;;;;;6.15;2.65;;;;;;;11.91;100.00;101444.16;1027697;28;20302;-91
2022/10/08 02:10:53;;;;;;;6.03;2.30;;;;;;;11.92;100.00;101440.44;1031219;28;20298;-92
2022/10/08 02:11:24;;;;;;;7.47;2.40;;;;;;;11.88;100.00;101439.25;1034258;28;20297;-92
2022/10/08 02:11:56;;;;;;;7.45;1.98;;;;;;;11.88;100.00;101444.56;1041010;28;20941;-91
2022/10/08 02:12:28;;;;;;;5.22;2.20;;;;;;;11.93;100.00;101442.09;1041822;28;20307;-91
2022/10/08 02:13:00;;;;;;;4.18;2.88;;;;;;;11.89;100.00;101445.41;1036740;28;20292;-93
2022/10/08 02:13:32;;;;;;;6.28;2.10;;;;;;;11.80;100.00;101444.81;1039127;28;20371;-91
2022/10/08 02:14:04;;;;;;;7.05;2.22;;;;;;;11.77;100.00;101437.97;1030786;28;20298;-93
2022/10/08 02:14:39;;;;;;;4.93;2.15;;;;;;;11.72;100.00;101440.47;1035645;28;20401;-91
2022/10/08 02:15:15;;;;;;;5.70;2.25;;;;;;;11.80;100.00;101442.13;1036313;28;20437;-92
2022/10/08 02:15:53;;;;;;;4.97;2.08;;;;;;;11.75;100.00;101445.38;1040521;28;20300;-91
2022/10/08 02:16:27;;;;;;;4.60;2.53;;;;;;;11.76;100.00;101443.53;1036036;28;20356;-90
2022/10/08 02:17:10;;;;;;;4.20;3.00;;;;;;;11.79;100.00;101437.03;1032737;28;20317;-92
2022/10/08 02:18:10;;;;;;;7.70;2.08;;;;;;;11.82;100.00;101439.25;1028116;28;20302;-92
2022/10/08 02:18:47;;;;;;;7.60;3.13;;;;;;;11.72;100.00;101444.97;1038589;28;20297;-92
2022/10/08 02:19:37;;;;;;;7.43;2.25;;;;;;;11.76;100.00;101451.53;1040402;28;20299;-93
2022/10/08 02:20:23;;;;;;;6.75;1.88;;;;;;;11.73;100.00;101441.28;1037476;28;20372;-93
2022/10/08 02:20:58;;;;;;;7.47;2.63;;;;;;;11.75;100.00;101449.91;1040420;28;20817;-92
2022/10/08 02:21:31;;;;;;;5.22;2.20;;;;;;;11.75;100.00;101450.72;1035767;28;20387;-91
2022/10/08 02:22:04;;;;;;;2.33;1.90;;;;;;;11.79;100.00;101456.53;1039276;28;20304;-94
2022/10/08 02:22:39;;;;;;;4.22;1.92;;;;;;;11.69;100.00;101456.91;1043168;28;20302;-92
2022/10/08 02:23:21;;;;;;;13.95;2.72;;;;;;;11.66;100.00;101459.97;1042186;28;20327;-93
2022/10/08 02:24:05;;;;;;;6.47;1.90;;;;;;;11.63;100.00;101448.91;1043962;28;20662;-92
2022/10/08 02:24:40;;;;;;;7.45;2.08;;;;;;;11.70;100.00;101457.72;1040363;28;20344;-92
2022/10/08 02:25:45;;;;;;;3.88;2.35;;;;;;;11.73;100.00;101457.28;1047697;28;20347;-92
2022/10/08 02:26:21;;;;;;;3.95;2.47;;;;;;;11.72;100.00;101456.47;1041082;28;20353;-93
2022/10/08 02:26:54;;;;;;;4.53;1.92;;;;;;;11.62;100.00;101449.94;1039846;28;20735;-92
2022/10/08 02:27:32;;;;;;;6.47;1.98;;;;;;;11.61;100.00;101453.63;1039647;28;20346;-91
2022/10/08 02:28:38;;;;;;;7.82;2.75;;;;;;;11.72;100.00;101450.31;1036249;28;20296;-92
2022/10/08 02:29:32;;;;;;;5.80;2.30;;;;;;;11.68;100.00;101454.44;1033789;28;20301;-92
2022/10/08 02:30:08;;;;;;;11.48;4.20;;;;;;;11.64;100.00;101448.69;1044545;28;20307;-92
2022/10/08 02:30:47;;;;;;;12.80;4.40;;;;;;;11.65;100.00;101454.84;1035492;28;20296;-93
2022/10/08 02:31:22;;;;;;;7.75;1.95;;;;;;;11.71;100.00;101454.03;1039665;28;20306;-93
2022/10/08 02:32:20;;;;;;;5.72;2.65;;;;;;;11.64;100.00;101447.88;1038612;28;20288;-92
2022/10/08 02:33:01;;;;;;;7.85;2.85;;;;;;;11.62;100.00;101447.28;1043524;28;20859;-92
2022/10/08 02:33:43;;;;;;;10.55;3.75;;;;;;;11.61;100.00;101445.63;1041553;28;20292;-92
2022/10/08 02:34:34;;;;;;;8.98;3.53;;;;;;;11.52;100.00;101449.56;1041537;28;20309;-92
2022/10/08 02:35:10;;;;;;;6.72;2.90;;;;;;;11.54;100.00;101442.97;1042910;28;20299;-92
2022/10/08 02:35:46;;;;;;;5.82;2.78;;;;;;;11.51;100.00;101451.41;1044802;28;20041;-91
2022/10/08 02:36:22;;;;;;;8.10;3.05;;;;;;;11.55;100.00;101443.81;1040086;28;20682;-92
2022/10/08 02:37:13;;;;;;;4.53;2.13;;;;;;;11.53;100.00;101444.00;1038893;28;20296;-92
2022/10/08 02:37:51;;;;;;;4.90;2.70;;;;;;;11.52;100.00;101438.88;1037840;28;20688;-92
2022/10/08 02:38:29;;;;;;;8.45;3.10;;;;;;;11.51;100.00;101446.06;1040997;28;20053;-91
2022/10/08 02:39:05;;;;;;;12.70;2.47;;;;;;;11.55;100.00;101433.13;1042312;28;20327;-94
2022/10/08 02:39:40;;;;;;;6.40;2.53;;;;;;;11.57;100.00;101442.56;1042941;28;20314;-91
2022/10/08 02:40:14;;;;;;;5.05;3.13;;;;;;;11.62;100.00;101444.59;1038008;28;20278;-90
2022/10/08 02:40:50;;;;;;;5.53;2.60;;;;;;;11.60;100.00;101450.16;1037793;28;20297;-92
2022/10/08 02:41:26;;;;;;;9.95;3.17;;;;;;;11.56;100.00;101440.94;1044619;28;20295;-89
2022/10/08 02:42:02;;;;;;;6.78;3.20;;;;;;;11.56;100.00;101445.44;1039694;28;20338;-90
2022/10/08 02:42:37;;;;;;;17.83;5.70;;;;;;;11.63;100.00;101452.41;1039360;28;20304;-90
2022/10/08 02:43:12;;;;;;;7.65;2.92;;;;;;;11.59;100.00;101439.69;1037538;28;20296;-92
2022/10/08 02:43:48;;;;;;;8.23;2.88;;;;;;;11.55;100.00;101446.47;1039077;28;20300;-90
2022/10/08 02:44:31;;;;;;;5.95;2.30;;;;;;;11.58;100.00;101443.38;1031062;28;20489;-88
2022/10/08 02:45:10;;;;;;;3.47;2.28;;;;;;;11.57;100.00;101452.41;1027941;28;20320;-90
2022/10/08 02:45:45;;;;;;;9.95;2.60;;;;;;;11.62;100.00;101449.94;1037196;28;20295;-93
2022/10/08 02:46:19;;;;;;;11.80;2.53;;;;;;;11.63;100.00;101441.72;1038369;28;20306;-90
2022/10/08 02:46:53;;;;;;;6.68;2.53;;;;;;;11.54;100.00;101447.50;1044233;28;20295;-95
2022/10/08 02:47:28;;;;;;;7.45;2.58;;;;;;;11.55;100.00;101447.28;1045719;28;20294;-89
2022/10/08 02:48:05;;;;;;;7.78;2.45;;;;;;;11.61;100.00;101442.97;1038582;28;20419;-90
2022/10/08 02:48:41;;;;;;;6.32;2.42;;;;;;;11.58;100.00;101446.06;1039580;28;20296;-92
2022/10/08 02:49:16;;;;;;;4.70;2.47;;;;;;;11.50;100.00;101443.59;1046040;28;20295;-92
2022/10/08 02:49:52;;;;;;;8.35;3.72;;;;;;;11.55;100.00;101438.47;1045351;28;20367;-90
2022/10/08 02:50:25;;;;;;;12.00;3.50;;;;;;;11.51;100.00;101439.91;1040702;28;20354;-91
2022/10/08 02:51:01;;;;;;;7.75;2.72;;;;;;;11.50;100.00;101443.59;1040316;28;21853;-89
2022/10/08 02:51:35;;;;;;;6.65;2.53;;;;;;;11.54;100.00;101439.50;1038600;28;20301;-89
2022/10/08 02:52:08;;;;;;;9.10;3.03;;;;;;;11.44;100.00;101438.06;1036202;28;20317;-90